Time;durP1;ratioP1;P1;durP2;ratioP2;P2;SDS_P1;SDS_P2;PMS_P1;PMS_P2;Temp;Humidity;BMP_temperature;BMP_pressure;BME280_temperature;BME280_humidity;BME280_pressure;Samples;Min_cycle;Max_cycle;Signal;HPM_P1;HPM_P2
2022/12/09 00:01:15;;;;;;;25.40;13.02;;;2.60;99.90;;;;;;5011682;28;20088;-73
2022/12/09 00:03:41;;;;;;;24.17;12.15;;;2.70;99.90;;;;;;5011375;28;20033;-74
2022/12/09 00:06:23;;;;;;;23.13;11.93;;;2.50;99.90;;;;;;5010830;28;20022;-73
2022/12/09 00:08:49;;;;;;;25.85;13.05;;;2.60;99.90;;;;;;5011373;28;20037;-74
2022/12/09 00:11:15;;;;;;;29.60;13.35;;;2.60;99.90;;;;;;5011291;28;20073;-73
2022/12/09 00:13:41;;;;;;;25.83;13.15;;;2.70;99.90;;;;;;5009932;28;20072;-74
2022/12/09 00:16:12;;;;;;;25.63;13.65;;;2.60;99.90;;;;;;5010082;28;20034;-73
2022/12/09 00:18:39;;;;;;;26.30;12.18;;;2.70;99.90;;;;;;5011207;28;20033;-73
2022/12/09 00:21:17;;;;;;;24.17;12.55;;;2.70;99.90;;;;;;5010621;28;20033;-73
2022/12/09 00:23:42;;;;;;;;;;;2.60;99.90;;;;;;5011345;28;20030;-73
2022/12/09 00:26:09;;;;;;;26.88;12.63;;;2.50;99.90;;;;;;5011230;28;20297;-73
2022/12/09 00:28:35;;;;;;;24.55;12.35;;;2.60;99.90;;;;;;5011179;28;20033;-73
2022/12/09 00:31:02;;;;;;;24.10;11.25;;;2.60;99.90;;;;;;5011066;28;20033;-74
2022/12/09 00:33:32;;;;;;;25.60;12.48;;;2.50;99.90;;;;;;5011120;28;20029;-73
2022/12/09 00:36:16;;;;;;;22.55;12.10;;;2.50;99.90;;;;;;5010466;28;20169;-73
2022/12/09 00:38:42;;;;;;;24.63;12.45;;;2.50;99.90;;;;;;5011295;28;20030;-75
2022/12/09 00:41:08;;;;;;;23.83;11.30;;;2.50;99.90;;;;;;5010925;28;20038;-74
2022/12/09 00:43:34;;;;;;;27.05;12.35;;;2.50;99.90;;;;;;5012370;28;20045;-74
2022/12/09 00:46:00;;;;;;;26.25;12.35;;;2.40;99.90;;;;;;5014879;28;20033;-75
2022/12/09 00:48:27;;;;;;;27.38;12.88;;;2.40;99.90;;;;;;5015320;28;20018;-74
2022/12/09 00:50:53;;;;;;;24.10;11.65;;;2.50;99.90;;;;;;5015804;28;20065;-75
2022/12/09 00:53:19;;;;;;;26.35;12.45;;;2.50;99.80;;;;;;5014940;28;20041;-75
2022/12/09 00:55:45;;;;;;;25.10;12.57;;;2.30;99.70;;;;;;5015059;28;20037;-74
2022/12/09 00:58:11;;;;;;;23.25;12.73;;;2.30;99.90;;;;;;5014804;28;20045;-75
2022/12/09 01:00:37;;;;;;;24.75;12.68;;;2.40;99.90;;;;;;5014672;28;20117;-75
2022/12/09 01:03:03;;;;;;;26.35;12.73;;;2.30;99.90;;;;;;5015109;28;20105;-75
2022/12/09 01:05:29;;;;;;;25.15;11.35;;;2.40;99.90;;;;;;5015003;28;20109;-75
2022/12/09 01:07:55;;;;;;;26.08;12.10;;;2.20;99.80;;;;;;5014755;28;20419;-75
2022/12/09 01:10:20;;;;;;;25.20;12.25;;;2.30;99.90;;;;;;5014840;28;20034;-75
2022/12/09 01:12:46;;;;;;;23.50;11.82;;;2.30;99.80;;;;;;5013275;28;20054;-75
2022/12/09 01:15:12;;;;;;;24.02;11.98;;;2.30;99.70;;;;;;5015285;28;20049;-75
2022/12/09 01:17:39;;;;;;;29.85;12.05;;;2.30;99.70;;;;;;5014599;28;20030;-75
2022/12/09 01:20:08;;;;;;;24.90;11.50;;;2.30;99.70;;;;;;5014320;28;20030;-75
2022/12/09 01:22:34;;;;;;;23.38;11.32;;;2.20;99.60;;;;;;5014521;28;20461;-74
2022/12/09 01:24:59;;;;;;;27.67;12.35;;;2.30;99.80;;;;;;5013342;28;20129;-76
2022/12/09 01:27:25;;;;;;;28.90;12.57;;;2.30;99.90;;;;;;5014384;28;20045;-75
2022/12/09 01:29:51;;;;;;;28.52;13.85;;;2.40;99.90;;;;;;5014685;28;20048;-76
2022/12/09 01:32:16;;;;;;;33.38;14.68;;;2.40;99.90;;;;;;5013246;28;20388;-74
2022/12/09 01:34:42;;;;;;;27.77;13.38;;;2.40;99.90;;;;;;5013186;28;20038;-76
2022/12/09 01:37:08;;;;;;;27.45;13.32;;;2.50;99.90;;;;;;5013992;28;20037;-74
2022/12/09 01:39:33;;;;;;;26.13;13.13;;;2.40;99.90;;;;;;5013977;28;20040;-75
2022/12/09 01:42:04;;;;;;;28.75;13.20;;;2.50;99.90;;;;;;5013434;28;20036;-76
2022/12/09 01:44:31;;;;;;;30.77;13.15;;;2.50;99.90;;;;;;5012743;28;20272;-76
2022/12/09 01:46:59;;;;;;;26.60;12.70;;;2.50;99.90;;;;;;5013821;28;20034;-75
2022/12/09 01:49:33;;;;;;;25.17;12.90;;;2.50;99.90;;;;;;5013581;28;20030;-75
2022/12/09 01:52:15;;;;;;;25.75;13.77;;;2.40;99.90;;;;;;5012802;28;20505;-75
2022/12/09 01:54:44;;;;;;;28.90;12.73;;;2.40;99.90;;;;;;5011857;28;20034;-75
2022/12/09 01:57:10;;;;;;;25.20;12.43;;;2.30;99.90;;;;;;5014595;28;20038;-75
2022/12/09 01:59:37;;;;;;;30.33;13.57;;;2.30;99.90;;;;;;5013670;28;20034;-76
2022/12/09 02:02:04;;;;;;;26.95;13.73;;;2.30;99.90;;;;;;5014057;28;20034;-74
2022/12/09 02:04:33;;;;;;;;;;;2.30;99.90;;;;;;5014247;28;20124;-75
2022/12/09 02:07:01;;;;;;;28.33;12.30;;;2.30;99.90;;;;;;5013504;28;19914;-75
2022/12/09 02:09:26;;;;;;;;;;;2.30;99.90;;;;;;5013926;28;20049;-74
2022/12/09 02:12:14;;;;;;;28.58;12.50;;;2.30;99.90;;;;;;5012772;28;19921;-74
2022/12/09 02:14:49;;;;;;;27.58;13.35;;;2.30;99.90;;;;;;5013936;28;20033;-75
2022/12/09 02:17:20;;;;;;;30.58;13.90;;;2.40;99.90;;;;;;5013469;28;20037;-74
2022/12/09 02:20:28;;;;;;;32.17;13.88;;;2.40;99.90;;;;;;5012222;28;20038;-73
2022/12/09 02:23:12;;;;;;;31.85;13.60;;;2.40;99.90;;;;;;5012934;28;20504;-74
2022/12/09 02:26:02;;;;;;;28.23;12.85;;;2.40;99.90;;;;;;5012911;28;20452;-75
2022/12/09 02:28:36;;;;;;;29.77;13.85;;;2.40;99.90;;;;;;5012105;28;20034;-74
2022/12/09 02:31:26;;;;;;;24.90;12.15;;;2.40;99.90;;;;;;5013051;28;20030;-74
2022/12/09 02:34:17;;;;;;;29.98;13.88;;;2.50;99.90;;;;;;5012893;28;20037;-74
2022/12/09 02:36:49;;;;;;;31.35;13.68;;;2.50;99.90;;;;;;5028759;28;20021;-75
2022/12/09 02:39:17;;;;;;;28.13;13.65;;;2.40;99.90;;;;;;5032007;28;20033;-75
2022/12/09 02:41:45;;;;;;;27.25;12.63;;;2.30;99.90;;;;;;5038994;28;20040;-75
2022/12/09 02:44:14;;;;;;;26.30;11.68;;;2.30;99.90;;;;;;5031362;28;20057;-75
2022/12/09 02:46:41;;;;;;;27.63;13.43;;;2.30;99.90;;;;;;5032244;28;20422;-74
2022/12/09 02:49:07;;;;;;;28.00;13.15;;;2.20;99.90;;;;;;5032706;28;20022;-75
2022/12/09 02:51:36;;;;;;;25.55;12.48;;;2.20;99.90;;;;;;5032403;28;20032;-74
2022/12/09 02:54:08;;;;;;;30.35;12.68;;;2.20;99.90;;;;;;5032874;28;20045;-76
2022/12/09 02:56:34;;;;;;;25.95;12.68;;;2.20;99.90;;;;;;5032420;28;20033;-74
2022/12/09 02:59:00;;;;;;;24.83;12.32;;;2.20;99.90;;;;;;5032231;28;20072;-75
2022/12/09 03:01:54;;;;;;;27.40;12.38;;;2.10;99.60;;;;;;5031213;28;20456;-75
2022/12/09 03:04:25;;;;;;;29.38;13.00;;;2.00;99.80;;;;;;5032133;28;20065;-75
2022/12/09 03:06:54;;;;;;;27.70;12.43;;;2.00;99.80;;;;;;5032079;28;20041;-76
2022/12/09 03:09:29;;;;;;;28.55;12.63;;;2.00;99.80;;;;;;5032686;28;20076;-75
2022/12/09 03:11:58;;;;;;;30.65;13.40;;;1.90;99.80;;;;;;5032001;28;20120;-75
2022/12/09 03:14:34;;;;;;;24.85;12.55;;;1.90;99.90;;;;;;5032104;28;20080;-75
2022/12/09 03:17:27;;;;;;;33.55;13.20;;;1.90;99.80;;;;;;5031160;28;20498;-73
2022/12/09 03:19:57;;;;;;;23.98;12.07;;;1.90;99.90;;;;;;5032121;28;20087;-77
2022/12/09 03:22:28;;;;;;;25.50;11.68;;;1.90;99.70;;;;;;5032044;28;20443;-75
2022/12/09 03:25:03;;;;;;;31.80;12.88;;;1.90;99.60;;;;;;5031758;28;20043;-75
2022/12/09 03:27:33;;;;;;;29.25;13.13;;;1.90;99.60;;;;;;5031771;28;20036;-75
2022/12/09 03:30:01;;;;;;;24.90;12.40;;;1.90;99.80;;;;;;5032486;28;20120;-75
2022/12/09 03:32:29;;;;;;;26.45;11.88;;;1.80;99.70;;;;;;5030730;28;20478;-76
2022/12/09 03:35:02;;;;;;;29.23;12.63;;;1.90;99.70;;;;;;5030597;28;20051;-75
2022/12/09 03:37:29;;;;;;;27.70;12.88;;;1.70;99.60;;;;;;5032037;28;20037;-77
2022/12/09 03:39:56;;;;;;;30.00;12.47;;;1.80;99.80;;;;;;5031651;28;20120;-75
2022/12/09 03:42:29;;;;;;;30.38;13.70;;;1.80;99.90;;;;;;5032151;28;20664;-76
2022/12/09 03:45:04;;;;;;;28.85;12.13;;;1.80;99.80;;;;;;5032023;28;20451;-76
2022/12/09 03:47:30;;;;;;;27.83;12.60;;;1.70;99.60;;;;;;5031799;28;20356;-75
2022/12/09 03:49:57;;;;;;;29.27;13.75;;;1.70;99.60;;;;;;5031579;28;20029;-76
2022/12/09 03:52:40;;;;;;;27.50;12.43;;;1.70;99.50;;;;;;5031433;28;20532;-75
2022/12/09 03:55:27;;;;;;;25.05;12.30;;;1.70;99.60;;;;;;5031861;28;20790;-75
2022/12/09 03:57:56;;;;;;;26.20;12.18;;;1.70;99.70;;;;;;5031623;28;20029;-76
2022/12/09 04:00:22;;;;;;;26.02;11.85;;;1.60;99.60;;;;;;5031769;28;20017;-76
2022/12/09 04:02:48;;;;;;;20.98;10.25;;;1.60;99.50;;;;;;5030096;28;20717;-76
2022/12/09 04:05:14;;;;;;;24.50;11.45;;;1.60;99.50;;;;;;5030208;28;20072;-75
2022/12/09 04:07:40;;;;;;;25.35;11.50;;;1.60;99.50;;;;;;5029854;28;20048;-73
2022/12/09 04:10:06;;;;;;;22.52;10.98;;;1.60;99.40;;;;;;5031052;28;20025;-76
2022/12/09 04:12:32;;;;;;;22.95;11.27;;;1.60;99.40;;;;;;5030745;28;20045;-75
2022/12/09 04:14:57;;;;;;;22.85;11.05;;;1.50;99.30;;;;;;5031669;28;20096;-76
2022/12/09 04:17:23;;;;;;;24.58;10.60;;;1.50;99.20;;;;;;5029853;28;20056;-76
2022/12/09 04:19:48;;;;;;;25.35;11.43;;;1.50;99.30;;;;;;5030764;28;20116;-75
2022/12/09 04:22:14;;;;;;;26.75;11.73;;;1.50;99.30;;;;;;5030956;28;20037;-75
2022/12/09 04:24:40;;;;;;;25.80;11.85;;;1.50;99.30;;;;;;5029721;28;20053;-76
2022/12/09 04:27:05;;;;;;;25.83;11.65;;;1.40;99.20;;;;;;5031303;28;20026;-77
2022/12/09 04:29:31;;;;;;;30.50;11.68;;;1.30;99.20;;;;;;5030757;28;20348;-76
2022/12/09 04:31:57;;;;;;;24.20;11.88;;;1.30;99.40;;;;;;5030826;28;20036;-76
2022/12/09 04:34:22;;;;;;;25.00;12.00;;;1.40;99.40;;;;;;5029676;28;20475;-76
2022/12/09 04:36:48;;;;;;;28.13;11.90;;;1.40;99.30;;;;;;5030956;28;20139;-76
2022/12/09 04:39:14;;;;;;;29.92;12.68;;;1.40;99.60;;;;;;5031062;28;20025;-76
2022/12/09 04:41:39;;;;;;;24.95;11.98;;;1.50;99.90;;;;;;5029605;28;20029;-76
2022/12/09 04:44:05;;;;;;;28.63;12.50;;;1.50;99.90;;;;;;5029335;28;20030;-76
2022/12/09 04:46:31;;;;;;;27.38;12.00;;;1.40;99.90;;;;;;5030736;28;20033;-76
2022/12/09 04:48:57;;;;;;;27.42;12.02;;;1.50;99.80;;;;;;5030652;28;20053;-77
2022/12/09 04:51:22;;;;;;;28.40;13.02;;;1.50;99.90;;;;;;5029947;28;20029;-77
2022/12/09 04:53:48;;;;;;;25.65;11.38;;;1.50;99.90;;;;;;5030644;28;20034;-75
2022/12/09 04:56:19;;;;;;;31.02;11.93;;;1.40;99.70;;;;;;5029431;28;20068;-75
2022/12/09 04:58:45;;;;;;;26.52;12.45;;;1.40;99.40;;;;;;5030659;28;20484;-76
2022/12/09 05:01:13;;;;;;;26.40;12.45;;;1.30;99.20;;;;;;5030631;28;20033;-76
2022/12/09 05:03:39;;;;;;;28.13;11.90;;;1.30;99.30;;;;;;5030631;28;20072;-76
2022/12/09 05:06:07;;;;;;;28.65;12.40;;;1.40;99.20;;;;;;5030912;28;20025;-75
2022/12/09 05:08:33;;;;;;;27.23;12.27;;;1.30;99.20;;;;;;5030529;28;20022;-75
2022/12/09 05:10:59;;;;;;;30.45;12.80;;;1.30;99.20;;;;;;5030478;28;20026;-77
2022/12/09 05:13:26;;;;;;;27.15;12.95;;;1.40;99.40;;;;;;5029262;28;20199;-74
2022/12/09 05:15:53;;;;;;;25.60;11.20;;;1.30;99.10;;;;;;5029497;28;20033;-75
2022/12/09 05:18:19;;;;;;;25.93;11.90;;;1.30;99.30;;;;;;5030874;28;20029;-75
2022/12/09 05:20:45;;;;;;;26.95;12.20;;;1.20;99.10;;;;;;5030659;28;20095;-75
2022/12/09 05:23:11;;;;;;;29.80;12.57;;;1.30;99.30;;;;;;5030530;28;20120;-75
2022/12/09 05:25:36;;;;;;;30.38;12.90;;;1.20;99.20;;;;;;5030359;28;20057;-74
2022/12/09 05:28:02;;;;;;;26.00;12.45;;;1.30;99.40;;;;;;5030122;28;20410;-75
2022/12/09 05:30:28;;;;;;;25.48;11.65;;;1.30;99.40;;;;;;5031801;28;20075;-74
2022/12/09 05:32:54;;;;;;;32.78;11.73;;;1.30;99.40;;;;;;5034486;28;20025;-75
2022/12/09 05:35:20;;;;;;;26.70;12.05;;;1.20;99.10;;;;;;5034079;28;20029;-75
2022/12/09 05:37:45;;;;;;;27.80;13.20;;;1.20;99.20;;;;;;5033609;28;20362;-75
2022/12/09 05:40:11;;;;;;;27.58;12.55;;;1.20;99.60;;;;;;5033892;28;20032;-76
2022/12/09 05:42:37;;;;;;;29.33;12.98;;;1.30;99.60;;;;;;5033796;28;20029;-76
2022/12/09 05:45:03;;;;;;;35.22;13.70;;;1.30;99.60;;;;;;5033979;28;20025;-75
2022/12/09 05:47:29;;;;;;;28.27;11.95;;;1.20;99.20;;;;;;5033837;28;20048;-75
2022/12/09 05:49:54;;;;;;;30.13;12.75;;;1.20;99.10;;;;;;5033591;28;20026;-74
2022/12/09 05:52:20;;;;;;;26.20;11.60;;;1.30;99.20;;;;;;5033604;28;20037;-74
2022/12/09 05:54:46;;;;;;;32.50;12.70;;;1.30;99.20;;;;;;5033273;28;20456;-75
2022/12/09 05:57:11;;;;;;;28.08;12.75;;;1.30;99.20;;;;;;5033974;28;20447;-75
2022/12/09 05:59:37;;;;;;;28.73;12.77;;;1.30;99.20;;;;;;5033976;28;20109;-75
2022/12/09 06:02:02;;;;;;;28.38;11.95;;;1.30;99.30;;;;;;5033872;28;20363;-75
2022/12/09 06:04:28;;;;;;;26.30;12.48;;;1.30;99.30;;;;;;5033345;28;20056;-75
2022/12/09 06:06:54;;;;;;;26.70;11.90;;;1.20;99.10;;;;;;5032026;28;20073;-75
2022/12/09 06:09:20;;;;;;;25.60;12.45;;;1.30;99.00;;;;;;5033770;28;20029;-77
2022/12/09 06:11:45;;;;;;;33.65;12.68;;;1.30;99.20;;;;;;5032921;28;20053;-75
2022/12/09 06:14:11;;;;;;;29.23;12.90;;;1.30;99.00;;;;;;5031845;28;20101;-76
2022/12/09 06:16:37;;;;;;;33.17;13.23;;;1.30;99.10;;;;;;5033127;28;20364;-75
2022/12/09 06:19:04;;;;;;;28.30;13.48;;;1.20;99.00;;;;;;5031832;28;20180;-75
2022/12/09 06:21:30;;;;;;;28.03;12.43;;;1.20;99.10;;;;;;5032964;28;20025;-74
2022/12/09 06:23:56;;;;;;;25.55;12.35;;;1.10;99.00;;;;;;5033300;28;20040;-72
2022/12/09 06:26:27;;;;;;;30.30;12.68;;;1.20;99.20;;;;;;5033147;28;20064;-74
2022/12/09 06:28:54;;;;;;;28.13;12.73;;;1.20;99.20;;;;;;5032998;28;20025;-74
2022/12/09 06:31:20;;;;;;;27.15;12.10;;;1.20;99.20;;;;;;5032990;28;20040;-76
2022/12/09 06:33:47;;;;;;;28.35;12.07;;;1.20;99.10;;;;;;5032589;28;20021;-77
2022/12/09 06:36:13;;;;;;;28.20;12.25;;;1.20;99.30;;;;;;5033052;28;20025;-75
2022/12/09 06:38:39;;;;;;;32.22;14.45;;;1.30;99.30;;;;;;5032756;28;20033;-76
2022/12/09 06:41:13;;;;;;;27.80;11.82;;;1.40;99.30;;;;;;5031087;28;20037;-75
2022/12/09 06:43:40;;;;;;;31.35;12.93;;;1.40;99.10;;;;;;5032679;28;20041;-75
2022/12/09 06:46:23;;;;;;;30.92;12.40;;;1.50;99.20;;;;;;5032351;28;20033;-76
2022/12/09 06:48:50;;;;;;;27.02;12.43;;;1.50;99.10;;;;;;5032542;28;20029;-77
2022/12/09 06:51:17;;;;;;;29.08;12.57;;;1.40;98.80;;;;;;5031581;28;20399;-77
2022/12/09 06:53:43;;;;;;;27.03;11.73;;;1.40;99.00;;;;;;5031954;28;20034;-76
2022/12/09 06:56:10;;;;;;;28.67;12.23;;;1.40;99.00;;;;;;5032364;28;20103;-76
2022/12/09 06:58:36;;;;;;;28.35;12.07;;;1.50;99.00;;;;;;5032169;28;20029;-76
2022/12/09 07:01:06;;;;;;;28.50;12.88;;;1.60;99.10;;;;;;5032091;28;20041;-77
2022/12/09 07:03:31;;;;;;;30.27;12.55;;;1.50;98.80;;;;;;5031225;28;20403;-77
2022/12/09 07:05:57;;;;;;;31.27;11.80;;;1.40;98.70;;;;;;5032669;28;20028;-79
2022/12/09 07:08:23;;;;;;;24.98;11.88;;;1.50;99.00;;;;;;5030867;28;20379;-78
2022/12/09 07:10:49;;;;;;;27.02;11.07;;;1.50;99.00;;;;;;5031681;28;20039;-75
2022/12/09 07:13:14;;;;;;;30.05;13.20;;;1.40;98.80;;;;;;5031832;28;20098;-76
2022/12/09 07:15:40;;;;;;;25.13;11.52;;;1.40;98.80;;;;;;5031657;28;20359;-76
2022/12/09 07:18:06;;;;;;;26.05;11.93;;;1.50;99.00;;;;;;5030766;28;20124;-75
2022/12/09 07:20:32;;;;;;;27.13;12.18;;;1.50;98.80;;;;;;5028857;28;20412;-78
2022/12/09 07:22:58;;;;;;;30.95;12.88;;;1.40;98.70;;;;;;5011905;28;20048;-76
2022/12/09 07:25:23;;;;;;;29.67;12.70;;;1.40;98.90;;;;;;5012036;28;20034;-77
2022/12/09 07:27:49;;;;;;;28.50;12.65;;;1.70;99.30;;;;;;5010736;28;20034;-79
2022/12/09 07:30:15;;;;;;;33.75;12.63;;;1.60;99.30;;;;;;5011242;28;20022;-76
2022/12/09 07:32:40;;;;;;;29.73;13.05;;;1.80;99.70;;;;;;5011543;28;20116;-73
2022/12/09 07:35:07;;;;;;;33.97;14.95;;;1.80;99.60;;;;;;5011956;28;20022;-73
2022/12/09 07:37:32;;;;;;;27.42;12.20;;;1.90;99.60;;;;;;5011716;28;20503;-73
2022/12/09 07:39:58;;;;;;;24.85;11.88;;;1.90;99.50;;;;;;5010504;28;20109;-72
2022/12/09 07:42:23;;;;;;;29.02;12.55;;;1.90;99.40;;;;;;5012592;28;20376;-73
2022/12/09 07:44:49;;;;;;;30.38;13.48;;;1.90;99.60;;;;;;5010348;28;20555;-74
2022/12/09 07:47:15;;;;;;;31.67;12.98;;;2.00;99.70;;;;;;5011429;28;20383;-73
2022/12/09 07:49:40;;;;;;;32.45;13.80;;;2.20;99.80;;;;;;5011278;28;20376;-72
2022/12/09 07:52:06;;;;;;;31.90;12.95;;;2.10;99.60;;;;;;5010039;28;20034;-75
2022/12/09 07:54:32;;;;;;;36.05;14.52;;;2.10;99.80;;;;;;5011102;28;20033;-73
2022/12/09 07:56:57;;;;;;;29.95;13.07;;;2.20;99.70;;;;;;5011570;28;20026;-73
2022/12/09 07:59:23;;;;;;;28.88;12.95;;;2.20;99.70;;;;;;5011418;28;20124;-73
2022/12/09 08:01:49;;;;;;;30.02;13.38;;;2.20;99.60;;;;;;5011114;28;20041;-75
2022/12/09 08:04:15;;;;;;;28.30;12.93;;;2.30;99.90;;;;;;5010949;28;20121;-73
2022/12/09 08:06:40;;;;;;;31.67;12.68;;;2.20;99.70;;;;;;5011362;28;20349;-74
2022/12/09 08:09:10;;;;;;;28.75;11.40;;;2.30;99.80;;;;;;5011489;28;20092;-74
2022/12/09 08:11:36;;;;;;;29.60;12.48;;;2.30;99.90;;;;;;5011012;28;20034;-75
2022/12/09 08:14:04;;;;;;;31.95;13.23;;;2.40;99.90;;;;;;5011176;28;20038;-72
2022/12/09 08:16:30;;;;;;;34.15;15.25;;;2.50;99.90;;;;;;5010940;28;20045;-72
2022/12/09 08:18:55;;;;;;;27.50;13.05;;;2.60;99.90;;;;;;5010897;28;20495;-75
2022/12/09 08:21:24;;;;;;;31.08;13.73;;;2.70;99.90;;;;;;5011492;28;20507;-75
2022/12/09 08:23:51;;;;;;;28.73;12.73;;;2.70;99.90;;;;;;5011166;28;20046;-75
2022/12/09 08:26:20;;;;;;;26.85;12.10;;;2.80;99.90;;;;;;5009745;28;20026;-75
2022/12/09 08:28:46;;;;;;;30.05;13.90;;;2.80;99.90;;;;;;5011051;28;20041;-72
2022/12/09 08:31:16;;;;;;;38.10;13.80;;;2.70;99.80;;;;;;5010896;28;20026;-74
2022/12/09 08:33:42;;;;;;;36.30;13.07;;;2.70;99.90;;;;;;5011171;28;20046;-72
2022/12/09 08:36:20;;;;;;;30.98;12.93;;;2.80;99.90;;;;;;5011197;28;20507;-73
2022/12/09 08:38:46;;;;;;;33.40;14.45;;;2.70;99.90;;;;;;5009843;28;20038;-73
2022/12/09 08:41:16;;;;;;;29.52;13.63;;;2.80;99.90;;;;;;5009646;28;20091;-74
2022/12/09 08:43:42;;;;;;;28.10;13.13;;;2.90;99.90;;;;;;5010461;28;20038;-73
2022/12/09 08:46:08;;;;;;;30.42;13.85;;;2.80;99.90;;;;;;5010487;28;20026;-72
2022/12/09 08:48:41;;;;;;;28.45;13.30;;;2.80;99.90;;;;;;5010970;28;20033;-72
2022/12/09 08:51:09;;;;;;;35.85;16.48;;;2.90;99.90;;;;;;5011460;28;20045;-71
2022/12/09 08:53:34;;;;;;;27.65;13.68;;;3.10;99.90;;;;;;5009767;28;20038;-74
2022/12/09 08:56:08;;;;;;;27.17;13.40;;;3.20;99.90;;;;;;5010665;28;20107;-73
2022/12/09 08:58:33;;;;;;;29.88;13.32;;;3.10;99.90;;;;;;5010827;28;20403;-73
2022/12/09 09:00:59;;;;;;;28.65;13.68;;;3.10;99.90;;;;;;5010495;28;20042;-72
2022/12/09 09:03:24;;;;;;;31.23;13.55;;;3.20;99.90;;;;;;5009727;28;20030;-74
2022/12/09 09:05:50;;;;;;;28.83;13.38;;;3.30;99.90;;;;;;5013983;28;20022;-74
2022/12/09 09:08:16;;;;;;;34.35;15.02;;;3.40;99.90;;;;;;5013326;28;20037;-71
2022/12/09 09:10:42;;;;;;;30.70;13.88;;;3.40;99.80;;;;;;5014596;28;20451;-73
2022/12/09 09:13:07;;;;;;;27.48;13.07;;;3.50;99.70;;;;;;5013222;28;20056;-72
2022/12/09 09:15:33;;;;;;;34.47;13.63;;;3.50;99.80;;;;;;5014411;28;20080;-71
2022/12/09 09:17:58;;;;;;;29.48;13.48;;;3.50;99.70;;;;;;5014713;28;20578;-73
2022/12/09 09:20:24;;;;;;;27.45;13.27;;;3.60;99.70;;;;;;5014306;28;20496;-71
2022/12/09 09:22:50;;;;;;;27.90;13.95;;;3.70;99.60;;;;;;5014328;28;20129;-73
2022/12/09 09:25:15;;;;;;;31.52;13.25;;;3.80;99.80;;;;;;5014024;28;20034;-71
2022/12/09 09:27:41;;;;;;;30.27;13.73;;;3.60;99.90;;;;;;5014063;28;20470;-72
2022/12/09 09:30:08;;;;;;;29.25;14.20;;;3.70;99.90;;;;;;5014816;28;20022;-73
2022/12/09 09:32:34;;;;;;;29.83;13.85;;;3.70;99.90;;;;;;5013880;28;20034;-72
2022/12/09 09:35:00;;;;;;;32.83;13.65;;;3.70;99.90;;;;;;5013908;28;20638;-73
2022/12/09 09:37:25;;;;;;;33.22;14.32;;;3.70;99.90;;;;;;5014117;28;20045;-74
2022/12/09 09:39:51;;;;;;;30.40;14.77;;;3.80;99.90;;;;;;5013760;28;20026;-73
2022/12/09 09:42:22;;;;;;;29.95;13.88;;;3.90;99.90;;;;;;5014571;28;20492;-73
2022/12/09 09:44:50;;;;;;;29.50;13.43;;;3.90;99.90;;;;;;5013590;28;20025;-75
2022/12/09 09:47:24;;;;;;;29.50;13.23;;;3.90;99.90;;;;;;5014050;28;20120;-76
2022/12/09 09:50:00;;;;;;;26.48;13.15;;;4.00;99.90;;;;;;5013599;28;20033;-77
2022/12/09 09:52:28;;;;;;;27.77;13.77;;;4.00;99.90;;;;;;5013952;28;20073;-75
2022/12/09 09:54:54;;;;;;;32.45;15.07;;;4.00;99.90;;;;;;5012544;28;20026;-76
2022/12/09 09:57:38;;;;;;;34.63;14.45;;;4.10;99.90;;;;;;5014047;28;20030;-76
2022/12/09 10:00:37;;;;;;;32.70;14.50;;;4.10;99.90;;;;;;5012747;28;20030;-75
2022/12/09 10:03:22;;;;;;;31.85;14.45;;;4.20;99.90;;;;;;5009749;28;20121;-74
2022/12/09 10:05:52;;;;;;;29.42;13.98;;;4.30;99.90;;;;;;5013451;28;20029;-78
2022/12/09 10:08:33;;;;;;;41.33;15.55;;;4.40;99.90;;;;;;5012556;28;20100;-75
2022/12/09 10:11:15;;;;;;;35.63;15.70;;;4.40;99.90;;;;;;5012604;28;20041;-72
2022/12/09 10:13:57;;;;;;;30.20;14.65;;;4.40;99.90;;;;;;5013223;28;20545;-76
2022/12/09 10:16:49;;;;;;;28.88;14.57;;;4.30;99.90;;;;;;5011976;28;20495;-82
2022/12/09 10:19:44;;;;;;;28.00;13.77;;;4.50;99.90;;;;;;5013635;28;20030;-81
2022/12/09 10:22:18;;;;;;;34.83;15.40;;;4.50;99.90;;;;;;4997891;28;20038;-75
2022/12/09 10:25:06;;;;;;;32.67;14.55;;;4.50;99.90;;;;;;5012072;28;20053;-75
2022/12/09 10:27:39;;;;;;;30.20;14.73;;;4.50;99.90;;;;;;5013327;28;20384;-76
2022/12/09 10:30:13;;;;;;;33.90;16.77;;;4.50;99.90;;;;;;5013823;28;20094;-76
2022/12/09 10:32:40;;;;;;;32.75;14.82;;;4.60;99.90;;;;;;5012935;28;20380;-74
2022/12/09 10:35:33;;;;;;;34.78;15.82;;;4.70;99.90;;;;;;5013219;28;20037;-75
2022/12/09 10:38:11;;;;;;;32.10;14.70;;;4.70;99.90;;;;;;5010153;28;20175;-76
2022/12/09 10:40:45;;;;;;;31.40;15.02;;;4.80;99.80;;;;;;5015080;28;20026;-76
2022/12/09 10:43:35;;;;;;;31.52;14.32;;;4.70;99.80;;;;;;5016034;28;20045;-76
2022/12/09 10:46:18;;;;;;;27.73;14.07;;;4.80;99.90;;;;;;5015010;28;20052;-76
2022/12/09 10:48:47;;;;;;;28.27;13.10;;;4.80;99.80;;;;;;5014676;28;20021;-76
2022/12/09 10:51:20;;;;;;;27.27;14.13;;;4.80;99.90;;;;;;5016412;28;20051;-76
2022/12/09 10:54:09;;;;;;;38.35;16.08;;;4.80;99.80;;;;;;5015982;28;20034;-76
2022/12/09 10:56:38;;;;;;;36.72;16.92;;;4.90;99.80;;;;;;5007525;28;20468;-77
2022/12/09 10:59:22;;;;;;;39.10;15.27;;;4.90;99.90;;;;;;5013327;28;20038;-76
2022/12/09 11:01:51;;;;;;;30.00;14.65;;;4.90;99.80;;;;;;5014235;28;20042;-74
2022/12/09 11:04:28;;;;;;;30.30;14.57;;;4.90;99.90;;;;;;5012867;28;20113;-77
2022/12/09 11:06:56;;;;;;;33.25;15.15;;;5.00;99.90;;;;;;5014258;28;20041;-77
2022/12/09 11:09:35;;;;;;;34.53;15.45;;;5.00;99.90;;;;;;5013403;28;20034;-76
2022/12/09 11:12:04;;;;;;;34.25;16.50;;;5.00;99.90;;;;;;5013039;28;20069;-77
2022/12/09 11:14:47;;;;;;;36.85;15.98;;;5.00;99.90;;;;;;5013325;28;20052;-77
2022/12/09 11:17:21;;;;;;;34.35;15.73;;;4.90;99.80;;;;;;5011724;28;20030;-77
2022/12/09 11:19:53;;;;;;;35.17;15.98;;;4.90;99.80;;;;;;5011464;28;20040;-77
2022/12/09 11:22:39;;;;;;;28.58;14.55;;;5.00;99.80;;;;;;5012815;28;20117;-77
2022/12/09 11:25:11;;;;;;;32.70;14.63;;;5.00;99.90;;;;;;5012437;28;20435;-77
2022/12/09 11:27:43;;;;;;;34.25;15.77;;;4.90;99.90;;;;;;5012376;28;20025;-76
2022/12/09 11:30:14;;;;;;;30.77;14.90;;;4.90;99.90;;;;;;5012766;28;20057;-77
2022/12/09 11:32:58;;;;;;;30.20;14.57;;;4.80;99.90;;;;;;5012230;28;20064;-76
2022/12/09 11:35:42;;;;;;;32.80;15.07;;;4.90;99.90;;;;;;5012612;28;20435;-76
2022/12/09 11:38:29;;;;;;;34.60;15.90;;;5.00;99.90;;;;;;5012442;28;20412;-76
2022/12/09 11:41:05;;;;;;;32.38;15.88;;;5.00;99.90;;;;;;5011201;28;20439;-76
2022/12/09 11:43:43;;;;;;;36.42;16.88;;;4.90;99.90;;;;;;5012824;28;20041;-76
2022/12/09 11:46:11;;;;;;;30.25;14.75;;;4.90;99.90;;;;;;5016369;28;20049;-76
2022/12/09 11:48:40;;;;;;;32.47;16.15;;;5.00;99.90;;;;;;5012230;28;20452;-76
2022/12/09 11:51:22;;;;;;;43.72;16.67;;;5.00;99.90;;;;;;5012616;28;20160;-76
2022/12/09 11:53:51;;;;;;;33.97;16.52;;;5.00;99.90;;;;;;5011270;28;20117;-76
2022/12/09 11:56:24;;;;;;;33.75;15.35;;;5.00;99.90;;;;;;5011491;28;20064;-77
2022/12/09 11:59:20;;;;;;;39.75;16.65;;;5.00;99.90;;;;;;5012065;28;20502;-76
2022/12/09 12:02:04;;;;;;;33.33;15.65;;;5.00;99.90;;;;;;5008692;28;20030;-76
2022/12/09 12:04:49;;;;;;;39.92;17.40;;;5.00;99.90;;;;;;5010824;28;20046;-77
2022/12/09 12:07:27;;;;;;;62.65;25.73;;;5.00;99.90;;;;;;5011157;28;20044;-76
2022/12/09 12:09:57;;;;;;;52.15;22.17;;;5.00;99.90;;;;;;5011841;28;20068;-77
2022/12/09 12:12:40;;;;;;;45.67;19.48;;;5.00;99.90;;;;;;5010875;28;20042;-75
2022/12/09 12:15:18;;;;;;;36.42;16.52;;;5.10;99.90;;;;;;5010286;28;20038;-77
2022/12/09 12:17:52;;;;;;;36.80;17.52;;;5.00;99.90;;;;;;5011342;28;20030;-77
2022/12/09 12:20:19;;;;;;;38.03;17.92;;;5.10;99.90;;;;;;5010112;28;20109;-76
2022/12/09 12:22:48;;;;;;;29.90;15.20;;;5.20;99.90;;;;;;5011198;28;20057;-78
2022/12/09 12:25:43;;;;;;;36.83;16.20;;;5.20;99.90;;;;;;5010994;28;20037;-77
2022/12/09 12:28:12;;;;;;;38.97;15.52;;;5.20;99.90;;;;;;5010905;28;20033;-76
2022/12/09 12:30:40;;;;;;;32.88;15.90;;;5.20;99.90;;;;;;5011069;28;20042;-76
2022/12/09 12:33:44;;;;;;;34.45;16.02;;;5.30;99.90;;;;;;5010966;28;20087;-76
2022/12/09 12:36:28;;;;;;;33.90;15.82;;;5.20;99.90;;;;;;5011571;28;20057;-76
2022/12/09 12:39:05;;;;;;;40.60;17.95;;;5.20;99.90;;;;;;5010484;28;20072;-76
2022/12/09 12:41:54;;;;;;;34.85;15.77;;;5.20;99.90;;;;;;5011180;28;20052;-76
2022/12/09 12:48:09;;;;;;;36.10;15.15;;;5.20;99.90;;;;;;5010977;28;20033;-76
2022/12/09 12:50:51;;;;;;;36.22;15.90;;;5.20;99.90;;;;;;5011334;28;20120;-77
2022/12/09 12:53:25;;;;;;;38.55;16.50;;;5.20;99.90;;;;;;5011123;28;20022;-75
2022/12/09 12:56:03;;;;;;;63.80;29.17;;;5.20;99.90;;;;;;5010880;28;20026;-75
2022/12/09 12:58:38;;;;;;;;;;;5.20;99.90;;;;;;5011439;28;20460;-75